createdAt,value
2019-02-17T00:00:38.166Z,51.23
2019-02-17T00:03:07.561Z,50.05
2019-02-17T00:05:36.922Z,50.83
2019-02-17T00:08:06.295Z,50.87
2019-02-17T00:10:35.717Z,50.93
2019-02-17T00:13:05.430Z,51.24
2019-02-17T00:15:35.116Z,50.56
2019-02-17T00:18:04.627Z,50.46
2019-02-17T00:20:34.269Z,51.33
2019-02-17T00:23:04.362Z,51.03
2019-02-17T00:25:34.115Z,51.08
2019-02-17T00:28:03.460Z,51.48
2019-02-17T00:30:33.154Z,51.52
2019-02-17T00:33:02.697Z,50.97
2019-02-17T00:35:33.754Z,51.36
2019-02-17T00:38:03.465Z,51.89
2019-02-17T00:40:32.997Z,51.60
2019-02-17T00:43:02.462Z,51.55
2019-02-17T00:45:31.775Z,51.62
2019-02-17T00:48:01.186Z,50.65
2019-02-17T00:50:30.857Z,52.00
2019-02-17T00:53:00.235Z,51.46
2019-02-17T00:55:29.884Z,51.09
2019-02-17T00:57:59.605Z,51.40
2019-02-17T01:00:29.257Z,51.57
2019-02-17T01:02:58.693Z,51.85
2019-02-17T01:05:28.134Z,51.37
2019-02-17T01:07:57.462Z,52.25
2019-02-17T01:10:27.234Z,51.56
2019-02-17T01:12:57.399Z,52.03
2019-02-17T01:15:27.177Z,51.45
2019-02-17T01:17:56.828Z,51.81
2019-02-17T01:20:26.646Z,52.04
2019-02-17T01:22:56.212Z,52.59
2019-02-17T01:25:26.416Z,51.87
2019-02-17T01:27:56.185Z,52.19
2019-02-17T01:30:26.419Z,52.22
2019-02-17T01:32:56.185Z,52.37
2019-02-17T01:35:25.533Z,52.76
2019-02-17T01:37:54.967Z,51.79
2019-02-17T01:40:24.375Z,52.15
2019-02-17T01:42:53.735Z,53.10
2019-02-17T01:45:23.649Z,52.92
2019-02-17T01:47:53.089Z,52.91
2019-02-17T01:50:23.197Z,53.17
2019-02-17T01:52:52.770Z,52.85
2019-02-17T01:55:22.491Z,52.60
2019-02-17T01:57:51.879Z,52.82
2019-02-17T02:00:21.603Z,53.03
2019-02-17T02:02:51.314Z,52.50
2019-02-17T02:05:20.684Z,53.06
2019-02-17T02:07:50.796Z,53.26
2019-02-17T02:10:20.196Z,53.53
2019-02-17T02:12:49.580Z,53.71
2019-02-17T02:15:20.129Z,53.03
2019-02-17T02:17:49.623Z,53.33
2019-02-17T02:20:18.983Z,53.61
2019-02-17T02:22:48.353Z,53.67
2019-02-17T02:25:17.739Z,53.19
2019-02-17T02:27:49.350Z,52.94
2019-02-17T02:30:18.706Z,53.52
2019-02-17T02:32:48.110Z,53.85
2019-02-17T02:35:17.812Z,53.26
2019-02-17T02:37:47.217Z,53.58
2019-02-17T02:40:16.612Z,53.33
2019-02-17T02:42:46.285Z,53.70
2019-02-17T02:45:15.889Z,52.92
2019-02-17T02:47:45.631Z,52.89
2019-02-17T02:50:15.045Z,53.01
2019-02-17T02:52:44.869Z,52.32
2019-02-17T02:55:14.216Z,52.61
2019-02-17T02:57:43.558Z,52.85
2019-02-17T03:00:13.021Z,52.57
2019-02-17T03:02:42.409Z,53.40
2019-02-17T03:05:11.872Z,53.74
2019-02-17T03:07:41.283Z,53.56
2019-02-17T03:10:10.751Z,52.67
2019-02-17T03:12:40.310Z,53.25
2019-02-17T03:15:10.508Z,53.05
2019-02-17T03:17:40.882Z,53.00
2019-02-17T03:20:12.719Z,53.28
2019-02-17T03:22:42.083Z,53.38
2019-02-17T03:25:11.639Z,53.38
2019-02-17T03:27:41.745Z,53.43
2019-02-17T03:30:11.466Z,52.78
2019-02-17T03:32:41.241Z,53.28
2019-02-17T03:35:10.682Z,52.80
2019-02-17T03:37:40.015Z,52.78
2019-02-17T03:40:09.806Z,52.80
2019-02-17T03:42:39.489Z,52.81
2019-02-17T03:45:09.035Z,52.88
2019-02-17T03:47:38.557Z,53.02
2019-02-17T03:50:09.156Z,52.21
2019-02-17T03:52:38.803Z,52.59
2019-02-17T03:55:08.250Z,52.84
2019-02-17T03:57:38.238Z,52.83
2019-02-17T04:00:16.502Z,52.77
2019-02-17T04:02:38.919Z,53.10
2019-02-17T04:05:09.136Z,52.68
2019-02-17T04:07:39.341Z,53.00
2019-02-17T04:10:08.993Z,52.74
2019-02-17T04:12:38.947Z,53.07
2019-02-17T04:15:08.488Z,53.10
2019-02-17T04:17:38.145Z,53.28
2019-02-17T04:20:07.858Z,54.00
2019-02-17T04:22:37.298Z,53.87
2019-02-17T04:25:07.131Z,53.98
2019-02-17T04:27:36.680Z,54.20
2019-02-17T04:30:06.229Z,54.13
2019-02-17T04:32:35.781Z,54.15
2019-02-17T04:35:05.776Z,54.48
2019-02-17T04:37:35.550Z,54.77
2019-02-17T04:40:06.294Z,55.16
2019-02-17T04:42:35.808Z,55.47
2019-02-17T04:45:05.855Z,55.76
2019-02-17T04:47:35.658Z,55.69
2019-02-17T04:50:05.114Z,55.49
2019-02-17T04:52:34.613Z,56.19
2019-02-17T04:55:04.791Z,57.64
2019-02-17T04:57:34.507Z,57.09
2019-02-17T05:00:04.410Z,56.96
2019-02-17T05:02:33.901Z,57.11
2019-02-17T05:05:03.196Z,57.45
2019-02-17T05:07:32.640Z,57.55
2019-02-17T05:10:02.022Z,57.32
2019-02-17T05:12:31.482Z,57.46
2019-02-17T05:15:00.922Z,57.20
2019-02-17T05:17:30.448Z,57.68
2019-02-17T05:20:00.195Z,57.98
2019-02-17T05:22:29.866Z,58.28
2019-02-17T05:24:59.615Z,58.92
2019-02-17T05:27:28.973Z,59.02
2019-02-17T05:29:58.536Z,59.35
2019-02-17T05:32:28.150Z,59.60
2019-02-17T05:34:59.097Z,59.90
2019-02-17T05:37:32.054Z,59.89
2019-02-17T05:40:04.124Z,59.87
2019-02-17T05:42:33.509Z,60.19
2019-02-17T05:45:03.631Z,60.20
2019-02-17T05:47:33.015Z,60.08
2019-02-17T05:50:03.030Z,60.95
2019-02-17T05:52:32.496Z,60.71
2019-02-17T05:55:01.952Z,60.87
2019-02-17T05:57:31.720Z,60.97
2019-02-17T06:00:01.272Z,61.05
2019-02-17T06:02:30.892Z,61.30
2019-02-17T06:05:00.327Z,61.27
2019-02-17T06:07:29.737Z,61.39
2019-02-17T06:09:59.111Z,61.34
2019-02-17T06:12:30.325Z,61.88
2019-02-17T06:15:00.299Z,61.89
2019-02-17T06:17:29.696Z,61.99
2019-02-17T06:19:59.085Z,62.59
2019-02-17T06:22:28.485Z,62.47
2019-02-17T06:24:57.909Z,62.62
2019-02-17T06:27:27.357Z,62.33
2019-02-17T06:29:56.906Z,62.16
2019-02-17T06:32:26.305Z,61.91
2019-02-17T06:34:55.685Z,61.86
2019-02-17T06:37:25.361Z,61.67
2019-02-17T06:39:54.743Z,61.91
2019-02-17T06:42:24.579Z,61.93
2019-02-17T06:44:53.936Z,61.80
2019-02-17T06:47:27.044Z,61.84
2019-02-17T06:49:56.631Z,61.75
2019-02-17T06:52:26.519Z,61.66
2019-02-17T06:55:19.074Z,61.79
2019-02-17T06:57:48.871Z,61.72
2019-02-17T07:00:22.153Z,60.89
2019-02-17T07:02:51.642Z,60.47
2019-02-17T07:05:42.729Z,60.20
2019-02-17T07:08:12.499Z,59.20
2019-02-17T07:10:42.370Z,55.41
2019-02-17T07:13:11.860Z,51.43
2019-02-17T07:15:41.351Z,48.81
2019-02-17T07:18:10.712Z,46.00
2019-02-17T07:20:40.280Z,43.13
2019-02-17T07:23:10.032Z,43.49
2019-02-17T07:25:39.988Z,47.18
2019-02-17T07:28:09.479Z,50.65
2019-02-17T07:30:42.266Z,52.96
2019-02-17T07:33:12.095Z,54.03
2019-02-17T07:35:42.424Z,55.15
2019-02-17T07:38:13.657Z,55.97
2019-02-17T07:40:43.148Z,56.37
2019-02-17T07:43:13.195Z,56.84
2019-02-17T07:45:42.661Z,57.51
2019-02-17T07:48:12.530Z,57.65
2019-02-17T07:50:42.035Z,57.76
2019-02-17T07:53:11.628Z,58.01
2019-02-17T07:55:41.130Z,57.70
2019-02-17T07:58:10.466Z,57.93
2019-02-17T08:00:40.398Z,57.93
2019-02-17T08:03:09.873Z,57.69
2019-02-17T08:05:39.871Z,57.46
2019-02-17T08:08:09.230Z,57.39
2019-02-17T08:10:38.808Z,57.56
2019-02-17T08:13:08.299Z,57.45
2019-02-17T08:15:39.882Z,57.38
2019-02-17T08:18:09.297Z,57.21
2019-02-17T08:20:38.935Z,57.50
2019-02-17T08:23:08.509Z,57.86
2019-02-17T08:25:37.835Z,56.98
2019-02-17T08:28:07.344Z,57.25
2019-02-17T08:30:36.802Z,57.38
2019-02-17T08:33:06.443Z,56.87
2019-02-17T08:35:36.230Z,56.57
2019-02-17T08:38:06.016Z,56.66
2019-02-17T08:40:35.778Z,56.32
2019-02-17T08:43:05.512Z,56.45
2019-02-17T08:45:34.969Z,56.62
2019-02-17T08:48:04.560Z,56.18
2019-02-17T08:50:34.000Z,55.76
2019-02-17T08:53:03.539Z,55.58
2019-02-17T08:55:32.902Z,54.94
2019-02-17T08:58:02.671Z,54.71
2019-02-17T09:00:32.028Z,55.28
2019-02-17T09:03:01.437Z,54.46
2019-02-17T09:05:31.392Z,54.07
2019-02-17T09:08:00.986Z,54.50
2019-02-17T09:10:30.693Z,53.56
2019-02-17T09:13:01.470Z,53.78
2019-02-17T09:15:31.349Z,53.39
2019-02-17T09:18:00.786Z,53.46
2019-02-17T09:20:30.264Z,53.34
2019-02-17T09:22:59.870Z,53.00
2019-02-17T09:25:30.088Z,52.38
2019-02-17T09:27:59.519Z,52.54
2019-02-17T09:30:28.869Z,51.69
2019-02-17T09:32:58.248Z,51.69
2019-02-17T09:35:27.684Z,51.37
2019-02-17T09:37:57.280Z,51.57
2019-02-17T09:40:26.626Z,51.48
2019-02-17T09:42:56.047Z,51.56
2019-02-17T09:45:25.757Z,51.21
2019-02-17T09:47:55.357Z,51.05
2019-02-17T09:50:24.956Z,50.11
2019-02-17T09:52:54.458Z,50.97
2019-02-17T09:55:23.874Z,50.56
2019-02-17T09:57:53.303Z,50.02
2019-02-17T10:00:22.662Z,48.64
2019-02-17T10:02:52.167Z,48.24
2019-02-17T10:05:21.850Z,48.66
2019-02-17T10:07:51.589Z,48.85
2019-02-17T10:10:21.041Z,48.33
2019-02-17T10:12:50.485Z,47.39
2019-02-17T10:15:19.933Z,47.18
2019-02-17T10:17:49.578Z,47.45
2019-02-17T10:20:19.021Z,47.11
2019-02-17T10:22:49.038Z,47.66
2019-02-17T10:25:18.581Z,47.92
2019-02-17T10:27:48.055Z,46.56
2019-02-17T10:30:17.545Z,46.60
2019-02-17T10:32:47.001Z,47.04
2019-02-17T10:35:16.407Z,45.54
2019-02-17T10:37:45.899Z,45.90
2019-02-17T10:40:15.410Z,47.22
2019-02-17T10:42:44.863Z,46.94
2019-02-17T10:45:15.056Z,45.80
2019-02-17T10:47:44.652Z,46.07
2019-02-17T10:50:14.685Z,45.24
2019-02-17T10:52:44.202Z,44.81
2019-02-17T10:55:14.154Z,44.58
2019-02-17T10:57:43.608Z,45.14
2019-02-17T11:00:14.557Z,43.72
2019-02-17T11:02:47.199Z,44.67
2019-02-17T11:05:15.505Z,43.51
2019-02-17T11:07:45.370Z,44.23
2019-02-17T11:10:16.016Z,45.20
2019-02-17T11:12:45.605Z,44.27
2019-02-17T11:15:17.317Z,43.03
2019-02-17T11:17:46.680Z,43.87
2019-02-17T11:20:16.168Z,43.03
2019-02-17T11:22:45.790Z,43.83
2019-02-17T11:25:15.203Z,43.14
2019-02-17T11:27:44.708Z,42.82
2019-02-17T11:30:15.063Z,43.10
2019-02-17T11:32:57.149Z,43.32
2019-02-17T11:35:18.584Z,42.52
2019-02-17T11:37:48.271Z,43.44
2019-02-17T11:40:18.302Z,43.54
2019-02-17T11:42:48.399Z,43.13
2019-02-17T11:45:18.413Z,42.87
2019-02-17T11:47:47.989Z,42.69
2019-02-17T11:50:18.233Z,41.94
2019-02-17T11:52:48.477Z,38.75
2019-02-17T11:55:18.023Z,38.45
2019-02-17T11:57:47.386Z,32.77
2019-02-17T12:00:21.332Z,29.17
2019-02-17T12:02:51.358Z,26.12
2019-02-17T12:05:20.739Z,23.57
2019-02-17T12:07:50.284Z,22.51
2019-02-17T12:10:19.856Z,21.17
2019-02-17T12:12:49.333Z,20.45
2019-02-17T12:15:18.848Z,20.93
2019-02-17T12:17:48.286Z,20.53
2019-02-17T12:20:54.305Z,18.02
2019-02-17T12:23:31.950Z,17.90
2019-02-17T12:26:19.020Z,17.98
2019-02-17T12:28:56.323Z,18.24
2019-02-17T12:31:29.103Z,16.92
2019-02-17T12:33:58.618Z,18.24
2019-02-17T12:36:28.003Z,17.17
2019-02-17T12:39:00.592Z,18.69
2019-02-17T12:41:29.985Z,17.09
2019-02-17T12:43:59.431Z,19.27
2019-02-17T12:46:29.166Z,17.75
2019-02-17T12:49:00.175Z,20.93
2019-02-17T12:51:29.946Z,20.03
2019-02-17T12:53:59.708Z,19.64
2019-02-17T12:56:29.241Z,21.72
2019-02-17T12:58:58.680Z,21.54
2019-02-17T13:01:28.134Z,20.70
2019-02-17T13:03:57.584Z,23.86
2019-02-17T13:06:27.667Z,25.97
2019-02-17T13:08:57.638Z,26.44
2019-02-17T13:11:27.005Z,28.25
2019-02-17T13:13:56.601Z,29.38
2019-02-17T13:16:26.356Z,29.34
2019-02-17T13:18:56.145Z,30.87
2019-02-17T13:21:25.971Z,32.14
2019-02-17T13:23:56.332Z,32.37
2019-02-17T13:26:26.170Z,32.13
2019-02-17T13:28:55.555Z,33.18
2019-02-17T13:31:24.994Z,33.07
2019-02-17T13:33:54.771Z,33.83
2019-02-17T13:36:24.165Z,34.55
2019-02-17T13:38:53.667Z,35.59
2019-02-17T13:41:23.091Z,35.63
2019-02-17T13:43:52.463Z,36.55
2019-02-17T13:46:21.914Z,36.86
2019-02-17T13:48:51.440Z,38.21
2019-02-17T13:51:20.886Z,39.07
2019-02-17T13:53:50.593Z,39.73
2019-02-17T13:56:21.105Z,39.74
2019-02-17T13:58:50.660Z,40.09
2019-02-17T14:01:20.321Z,40.85
2019-02-17T14:03:49.678Z,41.26
2019-02-17T14:06:19.345Z,42.26
2019-02-17T14:08:49.912Z,42.66
2019-02-17T14:11:19.446Z,43.06
2019-02-17T14:13:48.978Z,44.18
2019-02-17T14:16:18.515Z,43.75
2019-02-17T14:18:48.304Z,43.50
2019-02-17T14:21:17.686Z,44.42
2019-02-17T14:23:47.328Z,44.88
2019-02-17T14:26:16.669Z,45.13
2019-02-17T14:28:49.201Z,46.43
2019-02-17T14:31:18.748Z,46.61
2019-02-17T14:33:58.113Z,47.11
2019-02-17T14:36:19.567Z,47.56
2019-02-17T14:38:49.039Z,47.95
2019-02-17T14:41:20.874Z,48.92
2019-02-17T14:43:50.935Z,49.41
2019-02-17T14:46:20.774Z,50.74
2019-02-17T14:48:50.212Z,50.67
2019-02-17T14:51:19.663Z,51.48
2019-02-17T14:53:49.349Z,51.42
2019-02-17T14:56:18.754Z,52.24
2019-02-17T14:58:48.426Z,52.29
2019-02-17T15:01:18.211Z,53.03
2019-02-17T15:03:47.587Z,53.72
2019-02-17T15:06:19.325Z,54.06
2019-02-17T15:08:48.741Z,54.20
2019-02-17T15:11:18.104Z,54.58
2019-02-17T15:13:48.441Z,56.79
2019-02-17T15:16:17.912Z,57.15
2019-02-17T15:18:47.660Z,57.11
2019-02-17T15:21:17.070Z,57.03
2019-02-17T15:23:46.418Z,57.60
2019-02-17T15:26:16.182Z,57.15
2019-02-17T15:28:50.915Z,58.84
2019-02-17T15:31:16.918Z,58.30
2019-02-17T15:33:46.382Z,57.97
2019-02-17T15:36:16.198Z,58.47
2019-02-17T15:38:47.393Z,58.72
2019-02-17T15:41:17.290Z,58.58
2019-02-17T15:43:47.648Z,58.02
2019-02-17T15:46:17.006Z,58.41
2019-02-17T15:48:46.561Z,59.13
2019-02-17T15:51:16.073Z,60.19
2019-02-17T15:53:46.041Z,60.90
2019-02-17T15:56:15.446Z,61.97
2019-02-17T15:58:45.202Z,60.77
2019-02-17T16:01:14.936Z,60.80
2019-02-17T16:03:45.002Z,60.84
2019-02-17T16:06:14.519Z,61.28
2019-02-17T16:08:44.341Z,61.45
2019-02-17T16:11:14.169Z,61.63
2019-02-17T16:13:45.270Z,62.14
2019-02-17T16:16:16.829Z,62.16
2019-02-17T16:18:46.847Z,62.79
2019-02-17T16:21:16.254Z,62.05
2019-02-17T16:23:46.115Z,62.95
2019-02-17T16:26:15.470Z,63.04
2019-02-17T16:28:44.956Z,63.62
2019-02-17T16:31:14.554Z,63.13
2019-02-17T16:33:44.030Z,63.65
2019-02-17T16:36:13.504Z,63.54
2019-02-17T16:38:43.035Z,63.19
2019-02-17T16:41:12.807Z,63.63
2019-02-17T16:43:42.326Z,63.23
2019-02-17T16:46:12.042Z,64.00
2019-02-17T16:48:41.662Z,64.39
2019-02-17T16:51:11.040Z,65.07
2019-02-17T16:53:41.320Z,64.43
2019-02-17T16:56:10.852Z,64.43
2019-02-17T16:58:40.352Z,64.32
2019-02-17T17:01:10.030Z,64.95
2019-02-17T17:03:39.618Z,64.43
2019-02-17T17:06:09.359Z,64.58
2019-02-17T17:08:39.131Z,64.79
2019-02-17T17:11:08.573Z,66.09
2019-02-17T17:13:37.909Z,65.01
2019-02-17T17:16:07.285Z,65.46
2019-02-17T17:18:36.871Z,65.57
2019-02-17T17:21:06.297Z,66.60
2019-02-17T17:23:35.650Z,66.60
2019-02-17T17:26:05.362Z,65.72
2019-02-17T17:28:34.691Z,66.20
2019-02-17T17:31:04.442Z,66.09
2019-02-17T17:33:33.859Z,66.20
2019-02-17T17:36:03.246Z,66.13
2019-02-17T17:38:32.604Z,66.20
2019-02-17T17:41:02.345Z,67.52
2019-02-17T17:43:31.808Z,67.54
2019-02-17T17:46:01.293Z,67.59
2019-02-17T17:48:30.768Z,67.30
2019-02-17T17:51:02.188Z,67.46
2019-02-17T17:53:31.730Z,67.80
2019-02-17T17:56:02.176Z,69.24
2019-02-17T17:58:31.674Z,68.39
2019-02-17T18:01:01.240Z,68.42
2019-02-17T18:03:30.971Z,69.11
2019-02-17T18:06:03.192Z,68.34
2019-02-17T18:08:33.201Z,67.96
2019-02-17T18:11:02.641Z,68.45
2019-02-17T18:13:32.173Z,69.76
2019-02-17T18:16:02.377Z,69.88
2019-02-17T18:18:32.104Z,68.95
2019-02-17T18:21:01.696Z,69.04
2019-02-17T18:23:32.634Z,69.83
2019-02-17T18:26:02.091Z,69.37
2019-02-17T18:28:31.638Z,70.07
2019-02-17T18:31:01.011Z,70.24
2019-02-17T18:33:30.492Z,70.47
2019-02-17T18:36:01.200Z,69.84
2019-02-17T18:38:31.376Z,70.52
2019-02-17T18:41:00.810Z,70.68
2019-02-17T18:43:30.328Z,70.90
2019-02-17T18:45:59.784Z,70.04
2019-02-17T18:48:30.077Z,71.39
2019-02-17T18:50:59.614Z,71.36
2019-02-17T18:53:29.245Z,70.99
2019-02-17T18:55:59.039Z,71.23
2019-02-17T18:58:30.094Z,72.14
2019-02-17T19:00:59.520Z,72.43
2019-02-17T19:03:29.075Z,72.66
2019-02-17T19:05:59.403Z,71.87
2019-02-17T19:08:28.819Z,72.31
2019-02-17T19:10:58.307Z,72.22
2019-02-17T19:13:27.737Z,71.77
2019-02-17T19:15:59.268Z,71.80
2019-02-17T19:18:28.737Z,71.36
2019-02-17T19:20:58.125Z,70.96
2019-02-17T19:23:27.985Z,70.61
2019-02-17T19:25:57.883Z,70.22
2019-02-17T19:28:27.530Z,70.22
2019-02-17T19:30:57.034Z,70.25
2019-02-17T19:33:26.596Z,70.74
2019-02-17T19:35:56.124Z,70.57
2019-02-17T19:38:25.585Z,70.73
2019-02-17T19:40:55.297Z,70.71
2019-02-17T19:43:25.089Z,70.27
2019-02-17T19:45:54.540Z,70.24
2019-02-17T19:48:23.977Z,70.70
2019-02-17T19:50:53.379Z,71.27
2019-02-17T19:53:23.100Z,70.21
2019-02-17T19:55:52.623Z,70.81
2019-02-17T19:58:22.264Z,70.57
2019-02-17T20:00:51.648Z,70.64
2019-02-17T20:03:32.917Z,70.63
2019-02-17T20:06:03.443Z,71.12
2019-02-17T20:08:32.877Z,71.12
2019-02-17T20:11:02.274Z,71.66
2019-02-17T20:13:32.394Z,71.25
2019-02-17T20:16:01.822Z,71.25
2019-02-17T20:18:31.289Z,71.92
2019-02-17T20:21:00.838Z,71.65
2019-02-17T20:23:30.327Z,71.65
2019-02-17T20:26:00.280Z,71.70
2019-02-17T20:28:42.512Z,72.17
2019-02-17T20:31:01.421Z,71.09
2019-02-17T20:33:31.235Z,71.18
2019-02-17T20:36:03.039Z,71.15
2019-02-17T20:38:31.843Z,71.15
2019-02-17T20:41:01.238Z,71.50
2019-02-17T20:43:30.667Z,71.01
2019-02-17T20:46:00.089Z,71.13
2019-02-17T20:48:29.826Z,71.13
2019-02-17T20:50:59.246Z,71.67
2019-02-17T20:53:28.626Z,71.64
2019-02-17T20:55:58.107Z,71.25
2019-02-17T20:58:27.587Z,71.44
2019-02-17T21:00:57.436Z,71.44
2019-02-17T21:03:26.785Z,71.51
2019-02-17T21:05:56.701Z,71.38
2019-02-17T21:08:26.490Z,71.15
2019-02-17T21:10:55.956Z,70.84
2019-02-17T21:13:26.695Z,70.84
2019-02-17T21:15:56.115Z,70.57
2019-02-17T21:18:25.585Z,71.19
2019-02-17T21:20:55.049Z,71.45
2019-02-17T21:23:24.459Z,70.66
2019-02-17T21:25:54.059Z,69.93
2019-02-17T21:28:23.422Z,69.32
2019-02-17T21:30:53.344Z,68.74
2019-02-17T21:33:22.747Z,68.65
2019-02-17T21:35:52.310Z,68.00
2019-02-17T21:38:22.068Z,67.91
2019-02-17T21:40:51.541Z,67.42
2019-02-17T21:43:21.014Z,67.39
2019-02-17T21:45:50.796Z,67.28
2019-02-17T21:48:20.399Z,66.79
2019-02-17T21:50:50.180Z,66.60
2019-02-17T21:53:20.973Z,66.43
2019-02-17T21:55:50.566Z,66.48
2019-02-17T21:58:20.909Z,66.18
2019-02-17T22:00:50.469Z,65.58
2019-02-17T22:03:20.374Z,65.70
2019-02-17T22:05:50.661Z,65.91
2019-02-17T22:08:20.199Z,65.65
2019-02-17T22:10:49.928Z,65.44
2019-02-17T22:13:19.618Z,65.33
2019-02-17T22:15:49.160Z,65.33
2019-02-17T22:18:19.258Z,65.34
2019-02-17T22:20:49.059Z,65.10
2019-02-17T22:23:18.461Z,65.87
2019-02-17T22:25:47.851Z,65.31
2019-02-17T22:28:17.664Z,65.45
2019-02-17T22:30:47.541Z,66.05
2019-02-17T22:33:17.057Z,65.55
2019-02-17T22:35:48.350Z,65.75
2019-02-17T22:38:17.836Z,65.60
2019-02-17T22:40:47.265Z,65.62
2019-02-17T22:43:16.756Z,65.60
2019-02-17T22:45:46.417Z,65.35
2019-02-17T22:48:16.354Z,65.46
2019-02-17T22:50:46.123Z,65.91
2019-02-17T22:53:17.191Z,65.72
2019-02-17T22:55:46.659Z,65.42
2019-02-17T22:58:16.224Z,65.25
2019-02-17T23:01:06.736Z,65.72
2019-02-17T23:03:36.245Z,65.59
2019-02-17T23:06:05.979Z,65.67
2019-02-17T23:08:36.099Z,65.61
2019-02-17T23:11:05.668Z,65.88
2019-02-17T23:13:35.064Z,66.24
2019-02-17T23:16:05.405Z,65.87
2019-02-17T23:18:34.826Z,66.07
2019-02-17T23:21:04.170Z,65.85
2019-02-17T23:23:33.584Z,66.33
2019-02-17T23:26:02.941Z,66.21
2019-02-17T23:28:32.579Z,66.40
2019-02-17T23:31:01.964Z,66.60
2019-02-17T23:33:31.335Z,66.36
2019-02-17T23:36:01.113Z,66.93
2019-02-17T23:38:30.585Z,66.65
2019-02-17T23:40:59.980Z,66.79
2019-02-17T23:43:29.441Z,66.83
2019-02-17T23:45:58.823Z,66.88
2019-02-17T23:48:28.191Z,66.71
2019-02-17T23:50:57.556Z,66.81
2019-02-17T23:53:28.062Z,66.56
2019-02-17T23:55:57.641Z,66.49
2019-02-17T23:58:27.138Z,66.71
